createdAt,value
2022-10-06T00:01:19.714Z,99.90
2022-10-06T00:03:52.656Z,99.90
2022-10-06T00:06:26.680Z,99.90
2022-10-06T00:09:00.365Z,99.90
2022-10-06T00:11:29.920Z,99.90
2022-10-06T00:13:59.143Z,99.90
2022-10-06T00:16:33.506Z,99.90
2022-10-06T00:19:05.991Z,99.90
2022-10-06T00:21:39.277Z,99.90
2022-10-06T00:24:06.588Z,99.90
2022-10-06T00:26:42.212Z,99.90
2022-10-06T00:29:16.339Z,99.90
2022-10-06T00:31:45.045Z,99.90
2022-10-06T00:34:14.784Z,99.90
2022-10-06T00:36:42.032Z,99.90
2022-10-06T00:39:13.794Z,99.90
2022-10-06T00:41:45.601Z,99.90
2022-10-06T00:44:18.535Z,99.90
2022-10-06T00:47:06.267Z,99.90
2022-10-06T00:49:39.848Z,99.90
2022-10-06T00:52:25.198Z,99.90
2022-10-06T00:54:53.371Z,99.90
2022-10-06T00:57:39.055Z,99.90
2022-10-06T01:00:20.385Z,99.90
2022-10-06T01:03:03.266Z,99.90
2022-10-06T01:05:53.754Z,99.90
2022-10-06T01:08:26.349Z,99.90
2022-10-06T01:10:58.088Z,99.90
2022-10-06T01:13:32.811Z,99.90
2022-10-06T01:16:14.705Z,99.90
2022-10-06T01:18:50.009Z,99.90
2022-10-06T01:21:37.164Z,99.90
2022-10-06T01:24:17.517Z,99.90
2022-10-06T01:26:53.784Z,99.90
2022-10-06T01:29:44.195Z,99.90
2022-10-06T01:32:24.136Z,99.90
2022-10-06T01:34:59.358Z,99.90
2022-10-06T01:37:26.637Z,99.90
2022-10-06T01:40:00.008Z,99.90
2022-10-06T01:42:45.911Z,99.90
2022-10-06T01:45:15.719Z,99.90
2022-10-06T01:47:45.975Z,99.90
2022-10-06T01:50:19.130Z,99.90
2022-10-06T01:52:57.990Z,99.90
2022-10-06T01:55:28.550Z,99.90
2022-10-06T01:58:06.424Z,99.90
2022-10-06T02:00:41.431Z,99.90
2022-10-06T02:03:18.615Z,99.90
2022-10-06T02:05:51.206Z,99.90
2022-10-06T02:08:28.212Z,99.90
2022-10-06T02:11:04.269Z,99.90
2022-10-06T02:13:37.613Z,99.90
2022-10-06T02:16:10.154Z,99.90
2022-10-06T02:18:48.606Z,99.90
2022-10-06T02:21:25.181Z,99.90
2022-10-06T02:23:52.328Z,99.90
2022-10-06T02:26:21.010Z,99.90
2022-10-06T02:28:52.414Z,99.90
2022-10-06T02:31:34.148Z,99.90
2022-10-06T02:34:13.340Z,99.90
2022-10-06T02:36:40.543Z,99.90
2022-10-06T02:39:10.156Z,99.90
2022-10-06T02:41:40.315Z,99.90
2022-10-06T02:44:20.988Z,99.90
2022-10-06T02:46:52.933Z,99.90
2022-10-06T02:49:25.202Z,99.90
2022-10-06T02:51:56.517Z,99.90
2022-10-06T02:54:23.699Z,99.90
2022-10-06T02:56:54.247Z,99.90
2022-10-06T02:59:24.305Z,99.90
2022-10-06T03:02:03.355Z,99.90
2022-10-06T03:04:45.427Z,99.90
2022-10-06T03:07:17.913Z,99.90
2022-10-06T03:09:49.370Z,99.90
2022-10-06T03:12:20.787Z,99.90
2022-10-06T03:14:58.205Z,99.90
2022-10-06T03:17:25.462Z,99.90
2022-10-06T03:20:07.010Z,99.90
2022-10-06T03:22:37.065Z,99.90
2022-10-06T03:25:04.359Z,99.90
2022-10-06T03:27:33.237Z,99.90
2022-10-06T03:30:03.760Z,99.90
2022-10-06T03:32:33.870Z,99.90
2022-10-06T03:35:01.102Z,99.90
2022-10-06T03:37:31.307Z,99.90
2022-10-06T03:40:06.088Z,99.90
2022-10-06T03:42:46.550Z,99.90
2022-10-06T03:45:21.193Z,99.90
2022-10-06T03:47:52.474Z,99.90
2022-10-06T03:50:26.228Z,99.90
2022-10-06T03:52:55.800Z,99.90
2022-10-06T03:55:27.151Z,99.90
2022-10-06T03:58:00.546Z,99.90
2022-10-06T04:00:38.413Z,99.90
2022-10-06T04:03:24.749Z,99.90
2022-10-06T04:06:12.984Z,99.90
2022-10-06T04:08:54.367Z,99.90
2022-10-06T04:11:34.585Z,99.90
2022-10-06T04:14:10.275Z,99.90
2022-10-06T04:16:51.129Z,99.90
2022-10-06T04:19:26.755Z,99.90
2022-10-06T04:22:06.680Z,99.90
2022-10-06T04:24:33.881Z,99.90
2022-10-06T04:27:25.731Z,99.90
2022-10-06T04:30:00.892Z,99.90
2022-10-06T04:32:38.844Z,99.90
2022-10-06T04:35:07.887Z,99.90
2022-10-06T04:37:35.015Z,99.90
2022-10-06T04:40:05.088Z,99.90
2022-10-06T04:42:36.760Z,99.90
2022-10-06T04:45:08.938Z,99.90
2022-10-06T04:47:42.420Z,99.90
2022-10-06T04:50:16.019Z,99.90
2022-10-06T04:52:53.716Z,99.90
2022-10-06T04:55:27.930Z,99.90
2022-10-06T04:58:05.219Z,99.90
2022-10-06T05:00:37.729Z,99.90
2022-10-06T05:03:23.209Z,99.90
2022-10-06T05:05:50.429Z,99.90
2022-10-06T05:08:29.702Z,99.90
2022-10-06T05:11:06.133Z,99.90
2022-10-06T05:13:45.468Z,99.90
2022-10-06T05:16:20.397Z,99.90
2022-10-06T05:18:52.206Z,99.90
2022-10-06T05:21:31.214Z,99.90
2022-10-06T05:24:08.373Z,99.90
2022-10-06T05:27:01.875Z,99.90
2022-10-06T05:29:40.196Z,99.90
2022-10-06T05:32:17.132Z,99.90
2022-10-06T05:34:49.725Z,99.90
2022-10-06T05:37:25.519Z,99.90
2022-10-06T05:40:02.691Z,99.90
2022-10-06T05:42:39.595Z,99.90
2022-10-06T05:45:28.651Z,99.90
2022-10-06T05:48:02.809Z,99.90
2022-10-06T05:50:29.955Z,99.90
2022-10-06T05:53:06.076Z,99.90
2022-10-06T05:55:42.524Z,99.90
2022-10-06T05:58:16.463Z,99.90
2022-10-06T06:00:57.655Z,99.90
2022-10-06T06:03:24.557Z,99.90
2022-10-06T06:05:51.331Z,99.90
2022-10-06T06:08:18.106Z,99.90
2022-10-06T06:10:44.853Z,99.90
2022-10-06T06:13:11.612Z,99.90
2022-10-06T06:15:56.967Z,99.90
2022-10-06T06:18:23.749Z,99.90
2022-10-06T06:21:01.680Z,99.90
2022-10-06T06:23:36.935Z,99.90
2022-10-06T06:26:09.615Z,99.90
2022-10-06T06:28:37.272Z,99.90
2022-10-06T06:31:08.607Z,99.90
2022-10-06T06:33:39.652Z,99.90
2022-10-06T06:36:27.984Z,99.90
2022-10-06T06:38:57.545Z,99.90
2022-10-06T06:41:33.387Z,99.90
2022-10-06T06:44:00.325Z,99.90
2022-10-06T06:46:31.982Z,99.90
2022-10-06T06:49:04.160Z,99.90
2022-10-06T06:51:33.203Z,99.90
2022-10-06T06:54:02.404Z,99.90
2022-10-06T06:56:35.033Z,99.90
2022-10-06T06:59:04.235Z,99.90
2022-10-06T07:01:31.128Z,99.90
2022-10-06T07:04:01.224Z,99.90
2022-10-06T07:06:29.718Z,99.90
2022-10-06T07:09:00.623Z,99.90
2022-10-06T07:11:30.364Z,99.90
2022-10-06T07:14:01.425Z,99.90
2022-10-06T07:16:48.859Z,99.90
2022-10-06T07:19:36.009Z,99.90
2022-10-06T07:22:32.520Z,99.90
2022-10-06T07:25:07.216Z,99.90
2022-10-06T07:27:35.739Z,99.90
2022-10-06T07:30:06.319Z,99.90
2022-10-06T07:32:33.179Z,99.90
2022-10-06T07:35:00.749Z,99.90
2022-10-06T07:37:31.236Z,99.90
2022-10-06T07:39:58.035Z,99.90
2022-10-06T07:42:24.874Z,99.90
2022-10-06T07:45:10.149Z,99.90
2022-10-06T07:47:40.218Z,99.90
2022-10-06T07:50:08.307Z,99.90
2022-10-06T07:52:39.306Z,99.90
2022-10-06T07:55:06.770Z,99.90
2022-10-06T07:57:35.486Z,99.90
2022-10-06T08:00:05.550Z,99.90
2022-10-06T08:02:35.556Z,99.90
2022-10-06T08:05:04.036Z,99.90
2022-10-06T08:07:30.805Z,99.90
2022-10-06T08:09:59.189Z,99.90
2022-10-06T08:12:34.899Z,99.90
2022-10-06T08:15:06.952Z,99.90
2022-10-06T08:17:36.748Z,99.90
2022-10-06T08:20:10.429Z,99.90
2022-10-06T08:22:38.835Z,99.90
2022-10-06T08:25:07.647Z,99.90
2022-10-06T08:27:35.687Z,99.90
2022-10-06T08:30:07.258Z,99.90
2022-10-06T08:32:34.726Z,99.90
2022-10-06T08:35:01.986Z,99.90
2022-10-06T08:37:28.857Z,99.90
2022-10-06T08:39:56.575Z,99.90
2022-10-06T08:43:04.513Z,99.90
2022-10-06T08:45:38.639Z,99.90
2022-10-06T08:50:51.357Z,99.90
2022-10-06T08:53:55.791Z,95.60
2022-10-06T08:56:31.860Z,84.90
2022-10-06T08:59:04.293Z,73.20
2022-10-06T09:01:51.356Z,62.30
2022-10-06T09:04:28.255Z,59.70
2022-10-06T09:07:11.361Z,58.30
2022-10-06T09:10:04.512Z,57.60
2022-10-06T09:12:42.792Z,55.20
2022-10-06T09:15:20.729Z,54.20
2022-10-06T09:17:55.553Z,53.90
2022-10-06T09:20:37.237Z,52.60
2022-10-06T09:23:06.782Z,50.70
2022-10-06T09:25:34.004Z,48.60
2022-10-06T09:28:03.260Z,57.60
2022-10-06T09:30:30.157Z,76.90
2022-10-06T09:33:02.923Z,78.50
2022-10-06T09:35:32.484Z,80.20
2022-10-06T09:38:08.782Z,79.30
2022-10-06T09:40:51.293Z,77.30
2022-10-06T09:43:29.429Z,79.20
2022-10-06T09:46:17.793Z,80.20
2022-10-06T09:48:44.676Z,78.20
2022-10-06T09:51:18.670Z,77.50
2022-10-06T09:54:10.528Z,78.60
2022-10-06T09:56:45.141Z,75.50
2022-10-06T09:59:41.346Z,73.30
2022-10-06T10:02:39.745Z,74.30
2022-10-06T10:05:20.100Z,75.60
2022-10-06T10:08:00.270Z,75.90
2022-10-06T10:10:27.099Z,76.30
2022-10-06T10:12:56.683Z,77.70
2022-10-06T10:15:25.519Z,74.70
2022-10-06T10:17:53.692Z,73.90
2022-10-06T10:20:35.116Z,76.00
2022-10-06T10:23:30.850Z,77.20
2022-10-06T10:26:14.077Z,75.60
2022-10-06T10:28:58.991Z,76.80
2022-10-06T10:31:49.993Z,75.10
2022-10-06T10:34:24.192Z,75.00
2022-10-06T10:37:10.255Z,76.70
2022-10-06T10:40:00.274Z,76.50
2022-10-06T10:42:37.668Z,75.40
2022-10-06T10:45:15.115Z,74.80
2022-10-06T10:47:45.137Z,73.90
2022-10-06T10:50:22.745Z,74.00
2022-10-06T10:52:52.344Z,72.40
2022-10-06T10:55:39.230Z,72.80
2022-10-06T10:58:20.195Z,73.10
2022-10-06T11:00:57.742Z,73.20
2022-10-06T11:03:24.595Z,74.20
2022-10-06T11:06:14.590Z,74.40
2022-10-06T11:09:03.024Z,75.30
2022-10-06T11:11:52.447Z,76.10
2022-10-06T11:14:53.206Z,75.30
2022-10-06T11:17:22.735Z,74.70
2022-10-06T11:20:13.043Z,76.00
2022-10-06T11:22:41.644Z,76.70
2022-10-06T11:25:19.704Z,77.50
2022-10-06T11:28:00.515Z,77.20
2022-10-06T11:30:28.799Z,77.80
2022-10-06T11:33:13.669Z,78.30
2022-10-06T11:35:43.752Z,79.80
2022-10-06T11:38:25.301Z,80.00
2022-10-06T11:41:09.835Z,79.70
2022-10-06T11:43:45.939Z,76.90
2022-10-06T11:46:31.205Z,78.80
2022-10-06T11:49:30.251Z,80.60
2022-10-06T11:52:24.108Z,80.00
2022-10-06T11:54:56.229Z,80.20
2022-10-06T11:57:29.358Z,79.00
2022-10-06T12:00:00.381Z,78.90
2022-10-06T12:02:30.437Z,80.90
2022-10-06T12:05:55.254Z,80.20
2022-10-06T12:08:00.481Z,81.80
2022-10-06T12:10:32.066Z,81.90
2022-10-06T12:13:13.894Z,82.20
2022-10-06T12:18:57.250Z,82.90
2022-10-06T12:21:51.765Z,82.10
2022-10-06T12:24:30.779Z,84.90
2022-10-06T12:27:20.709Z,83.20
2022-10-06T12:30:06.450Z,83.40
2022-10-06T12:32:54.361Z,81.90
2022-10-06T12:35:30.348Z,82.90
2022-10-06T12:38:05.427Z,85.10
2022-10-06T12:40:41.539Z,84.40
2022-10-06T12:43:23.185Z,83.40
2022-10-06T12:45:56.259Z,82.90
2022-10-06T12:48:26.861Z,83.50
2022-10-06T12:51:21.001Z,82.60
2022-10-06T12:53:53.794Z,81.30
2022-10-06T12:56:29.132Z,81.20
2022-10-06T12:58:56.289Z,81.10
2022-10-06T13:01:23.894Z,81.50
2022-10-06T13:03:52.586Z,83.00
2022-10-06T13:06:24.584Z,83.90
2022-10-06T13:11:40.546Z,83.00
2022-10-06T13:14:10.671Z,83.40
2022-10-06T13:16:40.974Z,85.50
2022-10-06T13:19:28.174Z,82.90
2022-10-06T13:21:55.278Z,82.10
2022-10-06T13:24:27.111Z,80.70
2022-10-06T13:26:54.259Z,80.00
2022-10-06T13:29:24.575Z,81.80
2022-10-06T13:31:53.711Z,81.70
2022-10-06T13:34:34.937Z,83.50
2022-10-06T13:37:02.366Z,85.20
2022-10-06T13:39:32.369Z,87.10
2022-10-06T13:42:08.293Z,88.90
2022-10-06T13:44:35.109Z,86.30
2022-10-06T13:47:06.278Z,86.70
2022-10-06T13:49:43.122Z,87.70
2022-10-06T13:52:22.698Z,89.30
2022-10-06T13:54:57.891Z,89.80
2022-10-06T13:57:38.286Z,89.70
2022-10-06T14:00:25.334Z,87.90
2022-10-06T14:03:10.115Z,88.60
2022-10-06T14:05:39.438Z,88.70
2022-10-06T14:08:12.225Z,88.30
2022-10-06T14:10:46.354Z,88.80
2022-10-06T14:13:32.864Z,88.30
2022-10-06T14:16:07.615Z,90.00
2022-10-06T14:18:46.976Z,90.50
2022-10-06T14:21:38.307Z,89.80
2022-10-06T14:24:18.100Z,90.30
2022-10-06T14:26:55.687Z,90.70
2022-10-06T14:29:23.053Z,90.40
2022-10-06T14:31:50.557Z,90.90
2022-10-06T14:34:20.476Z,89.90
2022-10-06T14:36:53.507Z,90.60
2022-10-06T14:39:20.363Z,88.30
2022-10-06T14:41:47.655Z,82.80
2022-10-06T14:44:17.545Z,81.40
2022-10-06T14:46:48.705Z,78.10
2022-10-06T14:49:16.228Z,74.90
2022-10-06T14:51:44.455Z,76.00
2022-10-06T14:54:12.110Z,76.90
2022-10-06T14:56:40.412Z,75.80
2022-10-06T14:59:10.279Z,76.50
2022-10-06T15:01:40.202Z,76.30
2022-10-06T15:04:15.451Z,78.20
2022-10-06T15:07:01.321Z,79.60
2022-10-06T15:09:30.860Z,80.40
2022-10-06T15:11:58.483Z,81.60
2022-10-06T15:14:25.651Z,80.90
2022-10-06T15:16:54.155Z,81.20
2022-10-06T15:19:20.989Z,78.30
2022-10-06T15:21:48.061Z,80.50
2022-10-06T15:24:17.100Z,82.10
2022-10-06T15:27:03.303Z,80.30
2022-10-06T15:29:30.840Z,79.30
2022-10-06T15:31:58.749Z,83.60
2022-10-06T15:34:27.835Z,84.10
2022-10-06T15:36:56.463Z,84.20
2022-10-06T15:39:25.506Z,85.80
2022-10-06T15:41:52.626Z,86.30
2022-10-06T15:44:20.391Z,87.80
2022-10-06T15:46:52.561Z,89.60
2022-10-06T15:49:22.319Z,90.60
2022-10-06T15:52:02.792Z,92.70
2022-10-06T15:54:33.797Z,93.70
2022-10-06T15:57:02.685Z,94.30
2022-10-06T15:59:32.525Z,94.70
2022-10-06T16:02:05.060Z,95.40
2022-10-06T16:04:40.211Z,97.10
2022-10-06T16:07:09.002Z,98.80
2022-10-06T16:09:43.083Z,99.90
2022-10-06T16:12:12.602Z,99.90
2022-10-06T16:14:39.573Z,99.90
2022-10-06T16:17:07.814Z,99.90
2022-10-06T16:19:37.052Z,99.90
2022-10-06T16:22:05.735Z,99.90
2022-10-06T16:24:32.794Z,99.90
2022-10-06T16:27:00.212Z,99.90
2022-10-06T16:29:28.221Z,99.90
2022-10-06T16:31:56.366Z,99.90
2022-10-06T16:34:23.501Z,99.90
2022-10-06T16:36:50.478Z,99.90
2022-10-06T16:39:19.918Z,99.90
2022-10-06T16:41:47.229Z,99.90
2022-10-06T16:44:14.264Z,99.90
2022-10-06T16:46:41.214Z,99.90
2022-10-06T16:49:09.391Z,99.90
2022-10-06T16:51:38.889Z,99.90
2022-10-06T16:54:11.526Z,99.90
2022-10-06T16:56:44.223Z,99.90
2022-10-06T16:59:19.299Z,99.90
2022-10-06T17:01:47.549Z,99.90
2022-10-06T17:04:15.674Z,99.90
2022-10-06T17:06:48.543Z,99.90
2022-10-06T17:09:17.820Z,99.90
2022-10-06T17:11:53.610Z,99.90
2022-10-06T17:14:21.642Z,99.90
2022-10-06T17:16:51.202Z,99.90
2022-10-06T17:19:19.792Z,99.90
2022-10-06T17:21:50.500Z,99.90
2022-10-06T17:24:19.911Z,99.90
2022-10-06T17:26:48.803Z,99.90
2022-10-06T17:29:19.023Z,99.90
2022-10-06T17:31:47.328Z,99.90
2022-10-06T17:34:20.417Z,99.90
2022-10-06T17:36:49.954Z,99.90
2022-10-06T17:39:19.460Z,99.90
2022-10-06T17:41:47.413Z,99.90
2022-10-06T17:44:23.536Z,99.90
2022-10-06T17:46:53.535Z,99.90
2022-10-06T17:49:22.238Z,99.90
2022-10-06T17:51:50.525Z,99.90
2022-10-06T17:54:20.691Z,99.90
2022-10-06T17:56:49.581Z,99.90
2022-10-06T17:59:25.207Z,99.90
2022-10-06T18:01:56.296Z,99.90
2022-10-06T18:04:23.914Z,99.90
2022-10-06T18:06:53.220Z,99.90
2022-10-06T18:09:20.869Z,99.90
2022-10-06T18:11:55.947Z,99.90
2022-10-06T18:14:28.463Z,99.90
2022-10-06T18:17:00.834Z,99.90
2022-10-06T18:22:10.597Z,99.90
2022-10-06T18:24:37.844Z,99.90
2022-10-06T18:27:06.405Z,99.90
2022-10-06T18:29:35.577Z,99.90
2022-10-06T18:37:37.142Z,99.90
2022-10-06T18:40:06.924Z,99.90
2022-10-06T18:42:34.196Z,99.90
2022-10-06T18:45:24.155Z,99.90
2022-10-06T18:48:09.625Z,99.90
2022-10-06T18:50:36.552Z,99.90
2022-10-06T18:53:04.287Z,99.90
2022-10-06T18:55:32.017Z,99.90
2022-10-06T18:57:58.832Z,99.90
2022-10-06T19:00:26.370Z,99.90
2022-10-06T19:02:55.435Z,99.90
2022-10-06T19:05:22.852Z,99.90
2022-10-06T19:07:51.740Z,99.90
2022-10-06T19:10:19.433Z,99.90
2022-10-06T19:12:46.727Z,99.90
2022-10-06T19:15:17.812Z,99.90
2022-10-06T19:17:46.991Z,99.90
2022-10-06T19:20:13.909Z,99.90
2022-10-06T19:22:40.683Z,99.90
2022-10-06T19:25:08.001Z,99.90
2022-10-06T19:30:04.236Z,99.90
2022-10-06T19:32:34.438Z,99.90
2022-10-06T20:47:14.438Z,99.90
2022-10-06T20:49:44.557Z,99.90
2022-10-06T20:52:14.679Z,99.90
2022-10-06T20:54:41.836Z,99.90
2022-10-06T20:57:09.549Z,99.90
2022-10-06T20:59:37.370Z,99.90
2022-10-06T21:02:05.554Z,99.90
2022-10-06T21:04:32.773Z,99.90
2022-10-06T21:06:59.817Z,99.90
2022-10-06T21:09:28.701Z,99.90
2022-10-06T21:11:57.658Z,99.90
2022-10-06T21:14:25.006Z,99.90
2022-10-06T21:16:52.449Z,99.90
2022-10-06T21:19:19.741Z,99.90
2022-10-06T21:21:53.374Z,99.90
2022-10-06T21:24:21.114Z,99.90
2022-10-06T21:26:48.873Z,99.90
2022-10-06T21:29:16.354Z,99.90
2022-10-06T21:31:44.996Z,99.90
2022-10-06T21:34:14.508Z,99.90
2022-10-06T21:36:43.612Z,99.90
2022-10-06T21:39:11.586Z,99.90
2022-10-06T21:41:39.764Z,99.90
2022-10-06T21:44:11.176Z,99.90
2022-10-06T21:46:57.515Z,99.90
2022-10-06T21:49:25.703Z,99.90
2022-10-06T21:51:55.286Z,99.90
2022-10-06T21:54:23.575Z,99.90
2022-10-06T21:56:51.209Z,99.90
2022-10-06T21:59:18.232Z,99.90
2022-10-06T22:01:46.692Z,99.90
2022-10-06T22:04:15.073Z,99.90
2022-10-06T22:06:43.841Z,99.90
2022-10-06T22:09:15.606Z,99.90
2022-10-06T22:11:42.830Z,99.90
2022-10-06T22:14:13.213Z,99.90
2022-10-06T22:16:40.176Z,99.90
2022-10-06T22:19:09.740Z,99.90
2022-10-06T22:21:39.431Z,99.90
2022-10-06T22:24:19.045Z,99.90
2022-10-06T22:26:46.071Z,99.90
2022-10-06T22:29:15.413Z,99.90
2022-10-06T22:31:44.876Z,99.90
2022-10-06T22:34:14.328Z,99.90
2022-10-06T22:36:41.553Z,99.90
2022-10-06T22:39:08.514Z,99.90
2022-10-06T22:41:35.550Z,99.90
2022-10-06T22:44:02.765Z,99.90
2022-10-06T22:46:32.337Z,99.90
2022-10-06T22:48:59.622Z,99.90
2022-10-06T22:51:26.824Z,99.90
2022-10-06T22:53:57.954Z,99.90
2022-10-06T22:56:26.532Z,99.90
2022-10-06T22:58:53.619Z,99.90
2022-10-06T23:01:20.982Z,99.90
2022-10-06T23:03:48.062Z,99.90
2022-10-06T23:06:17.332Z,99.90
2022-10-06T23:08:44.845Z,99.90
2022-10-06T23:11:14.452Z,99.90
2022-10-06T23:13:43.323Z,99.90
2022-10-06T23:16:12.629Z,99.90
2022-10-06T23:18:41.248Z,99.90
2022-10-06T23:21:21.807Z,99.90
2022-10-06T23:23:51.971Z,99.90
2022-10-06T23:26:20.090Z,99.90
2022-10-06T23:28:58.317Z,99.90
2022-10-06T23:31:25.915Z,99.90
2022-10-06T23:33:53.599Z,99.90
2022-10-06T23:36:20.621Z,99.90
2022-10-06T23:38:47.975Z,99.90
2022-10-06T23:41:15.464Z,99.90
2022-10-06T23:43:42.433Z,99.90
2022-10-06T23:46:09.596Z,99.90
2022-10-06T23:48:36.650Z,99.90
2022-10-06T23:51:09.243Z,99.90
2022-10-06T23:53:36.504Z,99.90
2022-10-06T23:56:03.718Z,99.90
2022-10-06T23:58:30.742Z,99.90
